createdAt,value
2022-11-04T00:00:45.161Z,5.13
2022-11-04T00:03:30.594Z,5.32
2022-11-04T00:06:15.647Z,5.35
2022-11-04T00:09:01.126Z,5.78
2022-11-04T00:12:05.621Z,5.60
2022-11-04T00:14:50.809Z,5.03
2022-11-04T00:17:36.295Z,4.57
2022-11-04T00:20:40.081Z,5.00
2022-11-04T00:23:54.478Z,4.75
2022-11-04T00:26:58.374Z,5.05
2022-11-04T00:29:44.425Z,5.35
2022-11-04T00:32:49.658Z,4.65
2022-11-04T00:35:35.005Z,5.07
2022-11-04T00:38:20.467Z,5.35
2022-11-04T00:41:26.136Z,5.07
2022-11-04T00:44:11.745Z,5.20
2022-11-04T00:46:57.098Z,5.55
2022-11-04T00:49:42.562Z,5.75
2022-11-04T00:52:28.039Z,6.00
2022-11-04T00:55:13.446Z,5.85
2022-11-04T00:57:59.341Z,6.35
2022-11-04T01:00:44.501Z,5.88
2022-11-04T01:03:30.593Z,6.93
2022-11-04T01:06:16.197Z,7.80
2022-11-04T01:09:05.793Z,7.90
2022-11-04T01:11:51.177Z,6.53
2022-11-04T01:14:36.597Z,6.68
2022-11-04T01:17:22.112Z,6.57
2022-11-04T01:20:07.943Z,7.05
2022-11-04T01:22:53.380Z,6.47
2022-11-04T01:25:41.635Z,6.78
2022-11-04T01:28:27.029Z,6.25
2022-11-04T01:31:18.735Z,6.72
2022-11-04T01:34:03.895Z,6.32
2022-11-04T01:36:49.185Z,8.77
2022-11-04T01:39:34.616Z,6.20
2022-11-04T01:42:22.112Z,7.20
2022-11-04T01:45:14.597Z,6.22
2022-11-04T01:48:07.634Z,6.82
2022-11-04T01:50:54.775Z,6.22
2022-11-04T01:53:42.071Z,6.82
2022-11-04T01:56:28.668Z,7.15
2022-11-04T01:59:23.697Z,6.88
2022-11-04T02:02:09.207Z,6.13
2022-11-04T02:04:54.331Z,6.65
2022-11-04T02:07:40.116Z,6.95
2022-11-04T02:10:27.630Z,6.10
2022-11-04T02:13:12.885Z,6.38
2022-11-04T02:16:25.685Z,6.65
2022-11-04T02:19:27.434Z,6.43
2022-11-04T02:22:32.544Z,7.15
2022-11-04T02:25:47.964Z,5.82
2022-11-04T02:29:10.956Z,6.40
2022-11-04T02:32:10.280Z,6.50
2022-11-04T02:34:58.393Z,7.13
2022-11-04T02:37:56.656Z,6.35
2022-11-04T02:40:54.929Z,7.47
2022-11-04T02:44:08.162Z,7.00
2022-11-04T02:47:21.741Z,7.28
2022-11-04T02:50:16.028Z,7.28
2022-11-04T02:53:13.368Z,6.50
2022-11-04T02:56:00.935Z,7.00
2022-11-04T02:59:11.822Z,7.57
2022-11-04T03:02:00.509Z,7.80
2022-11-04T03:04:49.058Z,7.32
2022-11-04T03:07:40.089Z,6.53
2022-11-04T03:11:06.411Z,7.50
2022-11-04T03:14:29.140Z,7.70
2022-11-04T03:17:59.807Z,6.93
2022-11-04T03:20:48.488Z,7.28
2022-11-04T03:23:34.339Z,7.10
2022-11-04T03:26:28.514Z,7.93
2022-11-04T03:29:33.705Z,8.05
2022-11-04T03:32:47.936Z,8.30
2022-11-04T03:35:33.615Z,7.32
2022-11-04T03:38:20.482Z,7.85
2022-11-04T03:41:14.023Z,7.13
2022-11-04T03:43:59.567Z,7.00
2022-11-04T03:46:45.269Z,7.25
2022-11-04T03:49:30.328Z,6.15
2022-11-04T03:52:17.699Z,7.13
2022-11-04T03:55:04.462Z,6.75
2022-11-04T03:57:58.032Z,6.95
2022-11-04T04:00:56.721Z,6.97
2022-11-04T04:03:54.514Z,6.70
2022-11-04T04:06:41.307Z,6.53
2022-11-04T04:10:28.057Z,7.00
2022-11-04T04:13:31.367Z,7.03
2022-11-04T04:16:41.392Z,6.40
2022-11-04T04:19:27.654Z,5.63
2022-11-04T04:22:18.839Z,5.82
2022-11-04T04:25:26.109Z,6.07
2022-11-04T04:28:14.645Z,5.70
2022-11-04T04:31:00.533Z,4.78
2022-11-04T04:33:45.635Z,4.70
2022-11-04T04:36:34.138Z,4.25
2022-11-04T04:39:43.585Z,4.63
2022-11-04T04:42:52.372Z,4.38
2022-11-04T04:45:39.833Z,4.22
2022-11-04T04:48:25.644Z,4.03
2022-11-04T04:51:11.133Z,3.67
2022-11-04T04:53:56.572Z,4.28
2022-11-04T04:56:41.941Z,4.35
2022-11-04T04:59:27.236Z,3.78
2022-11-04T05:02:13.118Z,4.00
2022-11-04T05:04:59.323Z,3.75
2022-11-04T05:07:44.801Z,4.22
2022-11-04T05:10:30.074Z,3.72
2022-11-04T05:13:27.178Z,3.92
2022-11-04T05:16:12.406Z,3.17
2022-11-04T05:18:57.629Z,3.50
2022-11-04T05:21:43.030Z,4.10
2022-11-04T05:24:28.485Z,3.83
2022-11-04T05:27:13.960Z,3.63
2022-11-04T05:29:59.464Z,4.15
2022-11-04T05:32:44.704Z,3.65
2022-11-04T05:35:30.345Z,3.45
2022-11-04T05:38:15.720Z,3.60
2022-11-04T05:41:01.023Z,3.55
2022-11-04T05:43:46.511Z,3.88
2022-11-04T05:46:31.810Z,3.45
2022-11-04T05:49:17.205Z,3.67
2022-11-04T05:52:02.542Z,3.40
2022-11-04T05:54:47.709Z,3.35
2022-11-04T05:57:33.077Z,3.10
2022-11-04T06:00:18.710Z,2.95
2022-11-04T06:03:04.336Z,3.40
2022-11-04T06:05:49.555Z,3.03
2022-11-04T06:08:35.000Z,2.95
2022-11-04T06:11:22.100Z,3.17
2022-11-04T06:14:07.266Z,3.30
2022-11-04T06:16:52.757Z,3.45
2022-11-04T06:19:38.167Z,3.45
2022-11-04T06:22:23.572Z,3.70
2022-11-04T06:25:09.335Z,3.45
2022-11-04T06:27:54.366Z,3.30
2022-11-04T06:30:39.810Z,3.40
2022-11-04T06:33:25.413Z,3.08
2022-11-04T06:36:13.831Z,3.08
2022-11-04T06:39:04.312Z,3.05
2022-11-04T06:41:51.669Z,2.97
2022-11-04T06:44:37.215Z,3.25
2022-11-04T06:47:24.885Z,3.00
2022-11-04T06:50:12.182Z,2.88
2022-11-04T06:52:57.503Z,2.95
2022-11-04T06:55:43.399Z,3.25
2022-11-04T06:58:28.625Z,3.22
2022-11-04T07:01:20.264Z,3.08
2022-11-04T07:04:07.077Z,2.90
2022-11-04T07:06:52.520Z,2.65
2022-11-04T07:09:38.159Z,3.92
2022-11-04T07:12:24.663Z,3.60
2022-11-04T07:15:10.718Z,2.65
2022-11-04T07:17:56.100Z,2.90
2022-11-04T07:20:42.064Z,2.97
2022-11-04T07:23:27.526Z,3.03
2022-11-04T07:26:13.362Z,2.70
2022-11-04T07:29:00.895Z,2.60
2022-11-04T07:31:46.221Z,2.67
2022-11-04T07:34:31.502Z,2.38
2022-11-04T07:37:16.673Z,2.03
2022-11-04T07:40:02.256Z,2.08
2022-11-04T07:42:47.696Z,2.10
2022-11-04T07:45:33.346Z,2.40
2022-11-04T07:48:18.398Z,1.80
2022-11-04T07:51:05.858Z,2.40
2022-11-04T07:53:51.188Z,2.15
2022-11-04T07:56:36.694Z,2.70
2022-11-04T07:59:22.131Z,1.70
2022-11-04T08:02:07.697Z,1.75
2022-11-04T08:04:52.854Z,1.77
2022-11-04T08:07:38.427Z,2.25
2022-11-04T08:10:23.834Z,2.60
2022-11-04T08:13:09.723Z,2.08
2022-11-04T08:15:56.342Z,2.30
2022-11-04T08:18:42.877Z,2.42
2022-11-04T08:21:30.079Z,2.40
2022-11-04T08:24:16.447Z,2.05
2022-11-04T08:27:02.717Z,1.90
2022-11-04T08:29:47.880Z,1.90
2022-11-04T08:32:33.313Z,1.50
2022-11-04T08:35:18.546Z,1.77
2022-11-04T08:38:04.019Z,1.90
2022-11-04T08:40:49.399Z,1.60
2022-11-04T08:43:35.419Z,1.70
2022-11-04T08:46:20.804Z,1.60
2022-11-04T08:49:09.887Z,1.60
2022-11-04T08:51:59.588Z,1.40
2022-11-04T08:54:45.189Z,1.55
2022-11-04T08:57:31.618Z,1.45
2022-11-04T09:00:17.631Z,1.60
2022-11-04T09:03:03.233Z,1.60
2022-11-04T09:05:49.151Z,1.70
2022-11-04T09:08:34.619Z,0.93
2022-11-04T09:11:19.741Z,1.13
2022-11-04T09:14:05.926Z,1.25
2022-11-04T09:16:51.300Z,2.58
2022-11-04T09:19:36.667Z,1.63
2022-11-04T09:22:21.930Z,1.25
2022-11-04T09:25:07.697Z,1.75
2022-11-04T09:27:52.815Z,1.10
2022-11-04T09:30:38.357Z,1.50
2022-11-04T09:33:23.806Z,1.10
2022-11-04T09:36:10.436Z,1.20
2022-11-04T09:38:56.323Z,1.25
2022-11-04T09:42:26.805Z,1.38
2022-11-04T09:45:21.716Z,1.83
2022-11-04T09:48:17.063Z,1.25
2022-11-04T09:51:05.887Z,1.58
2022-11-04T09:53:54.804Z,1.10
2022-11-04T09:56:45.358Z,1.75
2022-11-04T09:59:34.592Z,1.30
2022-11-04T10:03:04.240Z,1.50
2022-11-04T10:06:11.368Z,1.40
2022-11-04T10:09:01.547Z,1.27
2022-11-04T10:12:04.904Z,1.00
2022-11-04T10:15:04.453Z,1.05
2022-11-04T10:17:49.747Z,1.25
2022-11-04T10:20:52.324Z,1.33
2022-11-04T10:24:07.922Z,1.20
2022-11-04T10:27:09.680Z,1.02
2022-11-04T10:29:59.741Z,1.30
2022-11-04T10:32:53.007Z,1.38
2022-11-04T10:35:57.080Z,1.25
2022-11-04T10:38:52.210Z,1.40
2022-11-04T10:41:40.041Z,1.63
2022-11-04T10:44:34.490Z,1.40
2022-11-04T10:47:41.221Z,2.25
2022-11-04T10:50:39.686Z,1.23
2022-11-04T10:53:30.638Z,1.38
2022-11-04T10:56:43.203Z,1.50
2022-11-04T10:59:50.779Z,1.35
2022-11-04T11:02:47.575Z,1.80
2022-11-04T11:05:32.647Z,1.13
2022-11-04T11:08:33.404Z,1.58
2022-11-04T11:11:37.614Z,1.30
2022-11-04T11:14:34.133Z,1.08
2022-11-04T11:17:22.512Z,1.30
2022-11-04T11:20:14.912Z,1.25
2022-11-04T11:23:04.781Z,1.45
2022-11-04T11:25:51.652Z,1.70
2022-11-04T11:28:40.496Z,1.15
2022-11-04T11:31:26.775Z,1.23
2022-11-04T11:34:37.337Z,1.77
2022-11-04T11:37:25.102Z,1.67
2022-11-04T11:40:47.453Z,1.20
2022-11-04T11:43:46.296Z,1.30
2022-11-04T11:46:35.363Z,1.67
2022-11-04T11:49:30.392Z,1.27
2022-11-04T11:52:39.747Z,1.20
2022-11-04T11:55:30.078Z,1.38
2022-11-04T12:01:36.293Z,1.33
2022-11-04T12:14:16.895Z,1.98
2022-11-04T12:17:43.858Z,1.42
2022-11-04T12:20:58.409Z,1.30
2022-11-04T12:23:47.256Z,1.58
2022-11-04T12:27:07.820Z,1.70
2022-11-04T12:29:56.060Z,1.20
2022-11-04T12:33:04.767Z,1.33
2022-11-04T12:36:08.749Z,1.15
2022-11-04T12:39:19.807Z,1.00
2022-11-04T12:42:21.068Z,1.20
2022-11-04T12:45:37.889Z,1.65
2022-11-04T12:48:41.825Z,1.10
2022-11-04T12:52:00.148Z,1.60
2022-11-04T12:55:16.092Z,1.90
2022-11-04T12:58:04.394Z,1.67
2022-11-04T13:00:59.716Z,1.73
2022-11-04T13:04:09.249Z,1.98
2022-11-04T13:07:18.951Z,1.50
2022-11-04T13:10:12.211Z,1.92
2022-11-04T13:13:01.965Z,1.88
2022-11-04T13:15:51.392Z,1.40
2022-11-04T13:18:40.081Z,1.60
2022-11-04T13:21:30.006Z,1.60
2022-11-04T13:24:24.633Z,1.33
2022-11-04T13:27:23.627Z,1.10
2022-11-04T13:30:23.083Z,2.65
2022-11-04T13:33:25.169Z,1.77
2022-11-04T13:36:29.690Z,1.13
2022-11-04T13:39:23.446Z,1.00
2022-11-04T13:42:23.703Z,1.23
2022-11-04T13:45:15.901Z,2.38
2022-11-04T13:48:01.531Z,1.00
2022-11-04T13:51:01.140Z,1.33
2022-11-04T13:53:58.836Z,1.00
2022-11-04T13:56:44.286Z,1.38
2022-11-04T13:59:31.509Z,1.42
2022-11-04T14:02:20.879Z,1.33
2022-11-04T14:05:28.290Z,1.30
2022-11-04T14:08:17.184Z,1.10
2022-11-04T14:11:10.326Z,1.45
2022-11-04T14:14:03.937Z,1.70
2022-11-04T14:16:49.411Z,1.65
2022-11-04T14:19:58.186Z,1.45
2022-11-04T14:22:43.099Z,1.20
2022-11-04T14:25:30.280Z,1.30
2022-11-04T14:28:15.395Z,1.30
2022-11-04T14:31:17.183Z,1.33
2022-11-04T14:34:04.171Z,1.23
2022-11-04T14:36:56.800Z,1.50
2022-11-04T14:42:46.822Z,2.30
2022-11-04T14:45:39.340Z,2.63
2022-11-04T14:51:26.016Z,2.13
2022-11-04T14:54:18.008Z,2.80
2022-11-04T14:57:21.185Z,1.92
2022-11-04T15:00:31.067Z,2.45
2022-11-04T15:04:08.706Z,2.13
2022-11-04T15:06:40.710Z,1.50
2022-11-04T15:09:48.686Z,1.73
2022-11-04T15:12:52.259Z,1.88
2022-11-04T15:15:41.716Z,1.55
2022-11-04T15:18:29.100Z,1.77
2022-11-04T15:21:14.852Z,1.60
2022-11-04T15:24:01.581Z,1.38
2022-11-04T15:26:54.907Z,1.50
2022-11-04T15:29:40.671Z,1.40
2022-11-04T15:32:26.472Z,1.38
2022-11-04T15:35:13.415Z,1.52
2022-11-04T15:38:01.845Z,1.52
2022-11-04T15:40:47.045Z,1.80
2022-11-04T15:43:33.193Z,1.60
2022-11-04T15:46:20.101Z,1.60
2022-11-04T15:49:07.423Z,2.45
2022-11-04T15:52:04.157Z,1.20
2022-11-04T15:54:53.011Z,1.60
2022-11-04T15:57:40.093Z,1.40
2022-11-04T16:00:28.301Z,1.30
2022-11-04T16:03:19.803Z,1.10
2022-11-04T16:06:07.484Z,1.13
2022-11-04T16:09:02.116Z,1.40
2022-11-04T16:12:14.383Z,0.95
2022-11-04T16:15:00.112Z,1.90
2022-11-04T16:17:45.448Z,1.10
2022-11-04T16:20:32.336Z,0.93
2022-11-04T16:23:21.512Z,1.40
2022-11-04T16:26:07.396Z,1.10
2022-11-04T16:28:57.881Z,1.35
2022-11-04T16:31:43.268Z,1.55
2022-11-04T16:34:28.327Z,1.35
2022-11-04T16:37:13.789Z,1.25
2022-11-04T16:39:59.141Z,1.40
2022-11-04T16:42:45.643Z,1.42
2022-11-04T16:45:33.938Z,1.40
2022-11-04T16:48:21.231Z,1.48
2022-11-04T16:51:06.340Z,1.67
2022-11-04T16:53:53.353Z,1.55
2022-11-04T16:56:38.870Z,1.38
2022-11-04T16:59:24.073Z,1.60
2022-11-04T17:02:30.715Z,1.80
2022-11-04T17:05:17.024Z,1.60
2022-11-04T17:08:05.052Z,1.27
2022-11-04T17:10:50.623Z,1.35
2022-11-04T17:13:36.932Z,1.80
2022-11-04T17:16:22.173Z,1.63
2022-11-04T17:19:14.016Z,1.70
2022-11-04T17:22:02.577Z,1.20
2022-11-04T17:24:48.154Z,1.50
2022-11-04T17:27:33.433Z,1.52
2022-11-04T17:30:20.168Z,1.30
2022-11-04T17:33:06.721Z,2.60
2022-11-04T17:35:52.238Z,1.52
2022-11-04T17:38:37.765Z,1.52
2022-11-04T17:41:41.855Z,1.90
2022-11-04T17:44:27.207Z,3.08
2022-11-04T17:47:12.722Z,2.15
2022-11-04T17:49:57.949Z,2.80
2022-11-04T17:52:44.740Z,2.70
2022-11-04T17:55:29.933Z,2.40
2022-11-04T17:58:15.249Z,2.38
2022-11-04T18:01:04.863Z,3.03
2022-11-04T18:03:53.530Z,2.97
2022-11-04T18:06:39.769Z,3.00
2022-11-04T18:09:25.034Z,2.60
2022-11-04T18:12:28.844Z,2.60
2022-11-04T18:15:17.174Z,3.00
2022-11-04T18:18:02.241Z,3.35
2022-11-04T18:20:48.093Z,4.32
2022-11-04T18:23:33.456Z,4.15
2022-11-04T18:26:19.043Z,4.72
2022-11-04T18:29:04.428Z,4.63
2022-11-04T18:31:49.812Z,5.50
2022-11-04T18:34:35.693Z,5.75
2022-11-04T18:37:20.820Z,7.75
2022-11-04T18:40:06.933Z,6.90
2022-11-04T18:42:52.288Z,6.13
2022-11-04T18:45:37.768Z,6.55
2022-11-04T18:48:24.059Z,5.90
2022-11-04T18:51:12.343Z,5.65
2022-11-04T18:53:57.617Z,6.00
2022-11-04T18:56:44.137Z,6.22
2022-11-04T18:59:29.573Z,6.35
2022-11-04T19:02:20.244Z,5.72
2022-11-04T19:05:06.689Z,5.43
2022-11-04T19:07:52.147Z,8.05
2022-11-04T19:10:58.087Z,4.82
2022-11-04T19:13:44.577Z,5.35
2022-11-04T19:16:30.595Z,5.25
2022-11-04T19:19:16.533Z,5.03
2022-11-04T19:22:01.916Z,5.47
2022-11-04T19:24:47.399Z,5.63
2022-11-04T19:27:32.971Z,5.88
2022-11-04T19:30:18.889Z,6.57
2022-11-04T19:33:04.192Z,5.50
2022-11-04T19:35:53.858Z,5.70
2022-11-04T19:38:39.582Z,4.90
2022-11-04T19:41:43.470Z,6.30
2022-11-04T19:44:28.959Z,5.40
2022-11-04T19:47:14.282Z,6.28
2022-11-04T19:49:59.745Z,6.40
2022-11-04T19:52:45.351Z,6.68
2022-11-04T19:55:31.019Z,5.47
2022-11-04T19:58:17.090Z,5.25
2022-11-04T20:01:06.856Z,5.60
2022-11-04T20:03:52.193Z,5.75
2022-11-04T20:06:37.524Z,6.60
2022-11-04T20:09:23.042Z,5.78
2022-11-04T20:12:26.805Z,6.50
2022-11-04T20:15:12.196Z,5.45
2022-11-04T20:17:57.688Z,5.53
2022-11-04T20:20:43.385Z,5.78
2022-11-04T20:23:28.600Z,5.75
2022-11-04T20:26:20.742Z,6.50
2022-11-04T20:29:06.956Z,5.03
2022-11-04T20:31:52.286Z,5.82
2022-11-04T20:34:37.856Z,6.00
2022-11-04T20:37:23.506Z,6.13
2022-11-04T20:40:09.285Z,5.00
2022-11-04T20:42:54.558Z,6.18
2022-11-04T20:45:39.902Z,5.15
2022-11-04T20:48:25.875Z,5.82
2022-11-04T20:51:13.658Z,5.15
2022-11-04T20:54:01.366Z,5.88
2022-11-04T20:56:47.014Z,6.13
2022-11-04T20:59:32.385Z,6.38
2022-11-04T21:02:17.917Z,5.80
2022-11-04T21:05:03.243Z,8.65
2022-11-04T21:07:48.589Z,7.80
2022-11-04T21:10:36.753Z,6.07
2022-11-04T21:13:22.355Z,6.88
2022-11-04T21:16:08.199Z,6.22
2022-11-04T21:18:54.427Z,6.57
2022-11-04T21:21:44.187Z,6.32
2022-11-04T21:24:29.442Z,7.82
2022-11-04T21:27:14.906Z,7.13
2022-11-04T21:30:00.135Z,5.95
2022-11-04T21:32:45.460Z,5.50
2022-11-04T21:35:33.664Z,6.53
2022-11-04T21:38:19.171Z,5.20
2022-11-04T21:41:11.085Z,5.13
2022-11-04T21:43:58.177Z,5.28
2022-11-04T21:46:43.400Z,5.18
2022-11-04T21:49:28.752Z,5.25
2022-11-04T21:52:14.242Z,4.82
2022-11-04T21:54:59.579Z,5.82
2022-11-04T21:57:45.169Z,5.38
2022-11-04T22:00:30.497Z,5.50
2022-11-04T22:03:16.080Z,5.47
2022-11-04T22:06:07.266Z,4.90
2022-11-04T22:08:56.214Z,5.63
2022-11-04T22:11:41.264Z,5.32
2022-11-04T22:14:28.191Z,5.68
2022-11-04T22:17:13.298Z,5.72
2022-11-04T22:19:58.782Z,5.55
2022-11-04T22:22:44.232Z,5.53
2022-11-04T22:25:30.494Z,6.32
2022-11-04T22:28:15.938Z,5.03
2022-11-04T22:31:07.114Z,5.90
2022-11-04T22:33:53.121Z,5.68
2022-11-04T22:36:38.517Z,5.63
2022-11-04T22:39:23.708Z,4.57
2022-11-04T22:42:09.008Z,5.32
2022-11-04T22:44:54.341Z,5.60
2022-11-04T22:47:39.698Z,5.30
2022-11-04T22:50:25.236Z,5.60
2022-11-04T22:53:12.791Z,6.18
2022-11-04T22:56:00.492Z,5.18
2022-11-04T22:58:45.964Z,6.22
2022-11-04T23:01:33.078Z,5.20
2022-11-04T23:04:18.174Z,7.80
2022-11-04T23:07:04.452Z,5.35
2022-11-04T23:10:08.289Z,5.65
2022-11-04T23:13:12.433Z,5.63
2022-11-04T23:16:20.098Z,5.85
2022-11-04T23:19:05.374Z,5.88
2022-11-04T23:22:09.326Z,5.45
2022-11-04T23:25:09.410Z,5.78
2022-11-04T23:28:14.185Z,4.55
2022-11-04T23:30:59.582Z,5.30
2022-11-04T23:34:03.605Z,5.28
2022-11-04T23:37:07.351Z,5.93
2022-11-04T23:39:52.697Z,6.13
2022-11-04T23:42:38.045Z,5.15
2022-11-04T23:45:42.466Z,6.10
2022-11-04T23:48:46.032Z,6.15
2022-11-04T23:51:50.324Z,5.45
2022-11-04T23:54:54.112Z,5.70
2022-11-04T23:58:11.585Z,4.85
